• Join FlightAware (Why Join?)
  • Login
  • US Flag 
06:46AM EDT


 

Airport Tracker/Info


-or-


 

Live Flight TrackerFlight Track Log ✈ AAL1554 ✈ 01-Jun-2013 ✈ KSAT - KDFW

Flight Track Log - Related Links

Times and Time Zones

All times are in EDT time to prevent confusion due to time zone crossing. See the AAL1554 flight status page for this flight to view local times or setup timezone preferences in your user account.

Time Position Orientation Groundspeed Altitude Reporting Facility
EDT Latitude Longitude Course Direction KTS MPH feet Rate Location/Type
06:51PM 29.5200 -98.4569 10° North 158 182 1,800  Level Houston Center
06:51PM 29.5106 -98.4425 127° Southeast 157 181 2,300 1,500 Climbing Houston Center
06:53PM 29.5114 -98.3850 89° East 229 264 3,900 2,100 Climbing Houston Center
06:54PM 29.7832 -98.4278 North  Level FlightAware Approximate
06:54PM 29.5922 -98.3772 North 281 323 6,700  Level Houston Center
06:55PM 29.8674 -98.4208 North  Level FlightAware Approximate
06:55PM 29.6731 -98.3797 358° North 293 337 9,600  Level Houston Center
06:56PM 29.9512 -98.4098 10° North  Level FlightAware Approximate
06:56PM 29.7711 -98.3836 358° North 337 388 11,100  Level Houston Center
06:57PM 29.8789 -98.3867 359° North 383 441 13,200 2,220 Climbing Houston Center
06:58PM 29.9925 -98.3894 359° North 410 472 15,700 2,460 Climbing Houston Center
06:59PM 30.1156 -98.3922 359° North 411 473 18,400 2,220 Climbing Houston Center
07:00PM 30.2339 -98.3742 North 428 493 20,400 1,800 Climbing Houston Center
07:01PM 30.3450 -98.3569 North 441 507 22,100 1,560 Climbing Houston Center
07:02PM 30.4736 -98.3392 North 454 522 23,700 1,680 Climbing Houston Center
07:03PM 30.6258 -98.3169 North 464 534 25,600 1,920 Climbing Houston Center
07:04PM 30.7550 -98.2981 North 462 532 27,700 1,140 Climbing Houston Center
07:05PM 30.8836 -98.2786 North 460 529 28,000 120 Climbing Houston Center
07:06PM 31.0108 -98.2594 North 456 525 28,000  Level Houston Center
07:07PM 31.1394 -98.2383 North 458 527 28,000  Level Houston Center
07:08PM 31.2619 -98.1917 18° North 455 524 28,000  Level Houston Center
07:09PM 31.3908 -98.1386 19° North 461 531 28,000 -480 Level Fort Worth Center
07:10PM 31.5081 -98.0786 24° Northeast 461 531 27,100 -1,260 Descending Fort Worth Center
07:11PM 31.6272 -98.0183 23° Northeast 454 522 25,500 -2,160 Descending Fort Worth Center
07:12PM 31.7444 -97.9606 23° Northeast 454 522 22,800 -2,640 Descending Fort Worth Center
07:13PM 31.8553 -97.9050 23° Northeast 447 514 20,300 -2,460 Descending Fort Worth Center
07:14PM 31.9517 -97.8589 22° Northeast 423 487 17,900 -2,700 Descending Fort Worth Center
07:15PM 32.0644 -97.8008 24° Northeast 411 473 15,000 -2,700 Descending Fort Worth Center
07:16PM 32.1586 -97.7544 23° Northeast 398 458 12,600 -2,040 Descending Fort Worth Center
07:17PM 32.2631 -97.7033 22° Northeast 382 440 11,000 -1,320 Descending Fort Worth Center
07:18PM 32.3383 -97.6592 26° Northeast 343 395 10,000 -1,320 Descending Fort Worth Center
07:19PM 32.3844 -97.5658 60° Northeast 291 335 8,400 -1,500 Descending Fort Worth Center
07:20PM 32.4219 -97.4897 60° Northeast 296 341 7,100 -1,500 Descending Fort Worth Center
07:21PM 32.4700 -97.4011 57° Northeast 296 341 5,500 -1,020 Descending Fort Worth Center
07:22PM 32.5078 -97.3297 58° Northeast 291 335 5,100 -240 Descending Fort Worth Center
07:23PM 32.5514 -97.2458 58° Northeast 286 329 5,100  Level Fort Worth Center
07:24PM 32.5889 -97.1742 58° Northeast 275 316 5,100 -120 Level Fort Worth Center
07:25PM 32.6533 -97.1075 41° Northeast 267 307 4,900 -720 Descending Fort Worth Center
07:26PM 32.7333 -97.0667 23° Northeast 258 297 3,700 -1,200 Descending Dallas / Fort Worth TRACON